sensor_id;sensor_type;location;lat;lon;timestamp;P1;durP1;ratioP1;P2;durP2;ratioP2
18296;SDS011;18066;52.106;5.534;2022-10-15T00:02:13;22.00;;;15.60;;
18296;SDS011;18066;52.106;5.534;2022-10-15T00:04:40;22.43;;;15.20;;
18296;SDS011;18066;52.106;5.534;2022-10-15T00:07:06;16.27;;;12.30;;
18296;SDS011;18066;52.106;5.534;2022-10-15T00:09:33;22.37;;;16.17;;
18296;SDS011;18066;52.106;5.534;2022-10-15T00:12:00;21.37;;;15.67;;
18296;SDS011;18066;52.106;5.534;2022-10-15T00:14:27;29.00;;;16.90;;
18296;SDS011;18066;52.106;5.534;2022-10-15T00:16:55;26.37;;;16.93;;
18296;SDS011;18066;52.106;5.534;2022-10-15T00:19:22;27.65;;;18.10;;
18296;SDS011;18066;52.106;5.534;2022-10-15T00:21:49;27.63;;;18.70;;
18296;SDS011;18066;52.106;5.534;2022-10-15T00:24:16;31.70;;;19.17;;
18296;SDS011;18066;52.106;5.534;2022-10-15T00:26:42;27.50;;;17.83;;
18296;SDS011;18066;52.106;5.534;2022-10-15T00:29:09;30.07;;;19.63;;
18296;SDS011;18066;52.106;5.534;2022-10-15T00:31:37;30.55;;;20.20;;
18296;SDS011;18066;52.106;5.534;2022-10-15T00:34:05;30.13;;;19.80;;
18296;SDS011;18066;52.106;5.534;2022-10-15T00:36:32;26.97;;;18.73;;
18296;SDS011;18066;52.106;5.534;2022-10-15T00:39:01;31.50;;;20.57;;
18296;SDS011;18066;52.106;5.534;2022-10-15T00:41:30;33.80;;;20.70;;
18296;SDS011;18066;52.106;5.534;2022-10-15T00:43:58;31.55;;;21.42;;
18296;SDS011;18066;52.106;5.534;2022-10-15T00:46:28;28.92;;;19.67;;
18296;SDS011;18066;52.106;5.534;2022-10-15T00:48:58;30.87;;;20.70;;
18296;SDS011;18066;52.106;5.534;2022-10-15T00:51:30;33.95;;;21.67;;
18296;SDS011;18066;52.106;5.534;2022-10-15T00:54:02;35.00;;;21.30;;
18296;SDS011;18066;52.106;5.534;2022-10-15T00:56:29;33.53;;;21.33;;
18296;SDS011;18066;52.106;5.534;2022-10-15T00:58:57;31.40;;;20.08;;
18296;SDS011;18066;52.106;5.534;2022-10-15T01:01:25;30.13;;;19.83;;
18296;SDS011;18066;52.106;5.534;2022-10-15T01:03:52;27.20;;;19.70;;
18296;SDS011;18066;52.106;5.534;2022-10-15T01:06:21;27.93;;;19.87;;
18296;SDS011;18066;52.106;5.534;2022-10-15T01:08:50;33.22;;;20.83;;
18296;SDS011;18066;52.106;5.534;2022-10-15T01:11:22;31.98;;;20.63;;
18296;SDS011;18066;52.106;5.534;2022-10-15T01:14:01;33.15;;;20.60;;
18296;SDS011;18066;52.106;5.534;2022-10-15T01:16:38;32.27;;;21.80;;
18296;SDS011;18066;52.106;5.534;2022-10-15T01:19:14;32.80;;;21.20;;
18296;SDS011;18066;52.106;5.534;2022-10-15T01:21:52;29.73;;;20.33;;
18296;SDS011;18066;52.106;5.534;2022-10-15T01:24:43;31.27;;;20.58;;
18296;SDS011;18066;52.106;5.534;2022-10-15T01:27:23;31.03;;;21.63;;
18296;SDS011;18066;52.106;5.534;2022-10-15T01:32:57;31.48;;;21.30;;
18296;SDS011;18066;52.106;5.534;2022-10-15T01:35:42;33.67;;;22.43;;
18296;SDS011;18066;52.106;5.534;2022-10-15T01:38:21;37.08;;;22.58;;
18296;SDS011;18066;52.106;5.534;2022-10-15T01:40:54;42.07;;;24.43;;
18296;SDS011;18066;52.106;5.534;2022-10-15T01:43:25;42.87;;;24.83;;
18296;SDS011;18066;52.106;5.534;2022-10-15T01:45:57;41.87;;;24.43;;
18296;SDS011;18066;52.106;5.534;2022-10-15T01:48:30;36.17;;;23.70;;
18296;SDS011;18066;52.106;5.534;2022-10-15T01:50:59;40.87;;;25.27;;
18296;SDS011;18066;52.106;5.534;2022-10-15T01:53:29;47.53;;;26.37;;
18296;SDS011;18066;52.106;5.534;2022-10-15T01:55:59;41.63;;;26.07;;
18296;SDS011;18066;52.106;5.534;2022-10-15T01:58:29;48.63;;;27.83;;
18296;SDS011;18066;52.106;5.534;2022-10-15T02:00:58;47.17;;;28.00;;
18296;SDS011;18066;52.106;5.534;2022-10-15T02:03:25;53.83;;;29.55;;
18296;SDS011;18066;52.106;5.534;2022-10-15T02:05:53;45.75;;;27.13;;
18296;SDS011;18066;52.106;5.534;2022-10-15T02:08:26;44.47;;;26.90;;
18296;SDS011;18066;52.106;5.534;2022-10-15T02:11:02;53.03;;;30.27;;
18296;SDS011;18066;52.106;5.534;2022-10-15T02:13:31;54.17;;;30.13;;
18296;SDS011;18066;52.106;5.534;2022-10-15T02:16:09;55.23;;;30.87;;
18296;SDS011;18066;52.106;5.534;2022-10-15T02:18:39;52.07;;;30.40;;
18296;SDS011;18066;52.106;5.534;2022-10-15T02:21:13;59.95;;;30.80;;
18296;SDS011;18066;52.106;5.534;2022-10-15T02:23:45;54.97;;;30.47;;
18296;SDS011;18066;52.106;5.534;2022-10-15T02:26:17;52.87;;;29.33;;
18296;SDS011;18066;52.106;5.534;2022-10-15T02:28:47;49.90;;;27.70;;
18296;SDS011;18066;52.106;5.534;2022-10-15T02:31:19;50.30;;;28.70;;
18296;SDS011;18066;52.106;5.534;2022-10-15T02:33:48;52.42;;;28.13;;
18296;SDS011;18066;52.106;5.534;2022-10-15T02:36:17;47.03;;;27.07;;
18296;SDS011;18066;52.106;5.534;2022-10-15T02:38:45;52.50;;;27.90;;
18296;SDS011;18066;52.106;5.534;2022-10-15T02:41:14;51.30;;;27.70;;
18296;SDS011;18066;52.106;5.534;2022-10-15T02:43:42;48.55;;;28.60;;
18296;SDS011;18066;52.106;5.534;2022-10-15T02:46:09;50.17;;;27.83;;
18296;SDS011;18066;52.106;5.534;2022-10-15T02:48:38;48.30;;;27.85;;
18296;SDS011;18066;52.106;5.534;2022-10-15T02:51:05;48.97;;;27.47;;
18296;SDS011;18066;52.106;5.534;2022-10-15T02:53:32;54.13;;;29.20;;
18296;SDS011;18066;52.106;5.534;2022-10-15T02:55:59;47.92;;;27.25;;
18296;SDS011;18066;52.106;5.534;2022-10-15T02:58:26;47.22;;;27.55;;
18296;SDS011;18066;52.106;5.534;2022-10-15T03:00:53;48.67;;;27.20;;
18296;SDS011;18066;52.106;5.534;2022-10-15T03:03:20;45.72;;;27.30;;
18296;SDS011;18066;52.106;5.534;2022-10-15T03:05:48;57.25;;;28.25;;
18296;SDS011;18066;52.106;5.534;2022-10-15T03:08:15;50.13;;;27.98;;
18296;SDS011;18066;52.106;5.534;2022-10-15T03:10:41;51.00;;;29.55;;
18296;SDS011;18066;52.106;5.534;2022-10-15T03:13:09;48.88;;;27.40;;
18296;SDS011;18066;52.106;5.534;2022-10-15T03:15:36;48.60;;;28.95;;
18296;SDS011;18066;52.106;5.534;2022-10-15T03:18:03;45.20;;;26.50;;
18296;SDS011;18066;52.106;5.534;2022-10-15T03:20:30;48.88;;;27.38;;
18296;SDS011;18066;52.106;5.534;2022-10-15T03:22:59;46.63;;;26.57;;
18296;SDS011;18066;52.106;5.534;2022-10-15T03:25:25;43.55;;;26.48;;
18296;SDS011;18066;52.106;5.534;2022-10-15T03:27:52;44.53;;;27.52;;
18296;SDS011;18066;52.106;5.534;2022-10-15T03:30:19;45.78;;;27.33;;
18296;SDS011;18066;52.106;5.534;2022-10-15T03:32:45;39.28;;;25.23;;
18296;SDS011;18066;52.106;5.534;2022-10-15T03:35:12;45.47;;;26.15;;
18296;SDS011;18066;52.106;5.534;2022-10-15T03:37:39;41.07;;;25.23;;
18296;SDS011;18066;52.106;5.534;2022-10-15T03:40:08;37.30;;;23.83;;
18296;SDS011;18066;52.106;5.534;2022-10-15T03:42:35;38.58;;;25.05;;
18296;SDS011;18066;52.106;5.534;2022-10-15T03:45:02;36.55;;;22.33;;
18296;SDS011;18066;52.106;5.534;2022-10-15T03:47:29;39.60;;;24.73;;
18296;SDS011;18066;52.106;5.534;2022-10-15T03:49:56;38.08;;;23.65;;
18296;SDS011;18066;52.106;5.534;2022-10-15T03:52:22;38.35;;;23.08;;
18296;SDS011;18066;52.106;5.534;2022-10-15T03:54:51;36.55;;;21.90;;
18296;SDS011;18066;52.106;5.534;2022-10-15T03:57:19;34.10;;;22.40;;
18296;SDS011;18066;52.106;5.534;2022-10-15T03:59:45;35.37;;;21.10;;
18296;SDS011;18066;52.106;5.534;2022-10-15T04:02:12;41.80;;;23.10;;
18296;SDS011;18066;52.106;5.534;2022-10-15T04:04:39;43.13;;;21.83;;
18296;SDS011;18066;52.106;5.534;2022-10-15T04:07:06;35.67;;;23.40;;
18296;SDS011;18066;52.106;5.534;2022-10-15T04:09:33;33.63;;;22.40;;
18296;SDS011;18066;52.106;5.534;2022-10-15T04:12:00;35.63;;;21.33;;
18296;SDS011;18066;52.106;5.534;2022-10-15T04:14:28;34.07;;;23.17;;
18296;SDS011;18066;52.106;5.534;2022-10-15T04:16:55;40.00;;;22.93;;
18296;SDS011;18066;52.106;5.534;2022-10-15T04:19:23;37.13;;;23.10;;
18296;SDS011;18066;52.106;5.534;2022-10-15T04:21:49;37.57;;;22.60;;
18296;SDS011;18066;52.106;5.534;2022-10-15T04:24:16;37.13;;;22.90;;
18296;SDS011;18066;52.106;5.534;2022-10-15T04:26:43;33.77;;;23.23;;
18296;SDS011;18066;52.106;5.534;2022-10-15T04:29:10;37.27;;;23.40;;
18296;SDS011;18066;52.106;5.534;2022-10-15T04:31:38;36.40;;;23.57;;
18296;SDS011;18066;52.106;5.534;2022-10-15T04:34:05;35.23;;;23.03;;
18296;SDS011;18066;52.106;5.534;2022-10-15T04:36:32;33.37;;;22.87;;
18296;SDS011;18066;52.106;5.534;2022-10-15T04:39:00;42.23;;;25.20;;
18296;SDS011;18066;52.106;5.534;2022-10-15T04:41:27;37.40;;;23.67;;
18296;SDS011;18066;52.106;5.534;2022-10-15T04:43:54;39.07;;;23.00;;
18296;SDS011;18066;52.106;5.534;2022-10-15T04:46:21;37.65;;;23.65;;
18296;SDS011;18066;52.106;5.534;2022-10-15T04:48:49;36.73;;;23.30;;
18296;SDS011;18066;52.106;5.534;2022-10-15T04:51:21;40.10;;;24.77;;
18296;SDS011;18066;52.106;5.534;2022-10-15T04:53:48;39.13;;;24.67;;
18296;SDS011;18066;52.106;5.534;2022-10-15T04:56:16;42.03;;;24.53;;
18296;SDS011;18066;52.106;5.534;2022-10-15T04:58:45;38.77;;;24.53;;
18296;SDS011;18066;52.106;5.534;2022-10-15T05:01:14;42.53;;;25.90;;
18296;SDS011;18066;52.106;5.534;2022-10-15T05:03:42;37.60;;;25.47;;
18296;SDS011;18066;52.106;5.534;2022-10-15T05:06:12;37.83;;;25.03;;
18296;SDS011;18066;52.106;5.534;2022-10-15T05:08:40;39.50;;;26.30;;
18296;SDS011;18066;52.106;5.534;2022-10-15T05:11:08;38.25;;;24.98;;
18296;SDS011;18066;52.106;5.534;2022-10-15T05:13:36;41.73;;;27.30;;
18296;SDS011;18066;52.106;5.534;2022-10-15T05:16:10;41.83;;;26.17;;
18296;SDS011;18066;52.106;5.534;2022-10-15T05:18:38;39.97;;;26.00;;
18296;SDS011;18066;52.106;5.534;2022-10-15T05:21:06;42.92;;;26.30;;
18296;SDS011;18066;52.106;5.534;2022-10-15T05:23:35;43.63;;;27.58;;
18296;SDS011;18066;52.106;5.534;2022-10-15T05:26:03;42.45;;;26.90;;
18296;SDS011;18066;52.106;5.534;2022-10-15T05:28:31;40.38;;;27.23;;
18296;SDS011;18066;52.106;5.534;2022-10-15T05:31:02;41.70;;;27.97;;
18296;SDS011;18066;52.106;5.534;2022-10-15T05:33:29;45.43;;;28.73;;
18296;SDS011;18066;52.106;5.534;2022-10-15T05:35:56;46.77;;;29.07;;
18296;SDS011;18066;52.106;5.534;2022-10-15T05:38:23;52.37;;;33.80;;
18296;SDS011;18066;52.106;5.534;2022-10-15T05:40:51;55.93;;;34.53;;
18296;SDS011;18066;52.106;5.534;2022-10-15T05:43:18;60.20;;;36.03;;
18296;SDS011;18066;52.106;5.534;2022-10-15T05:45:44;62.47;;;35.47;;
18296;SDS011;18066;52.106;5.534;2022-10-15T05:48:11;79.40;;;38.73;;
18296;SDS011;18066;52.106;5.534;2022-10-15T05:50:39;79.73;;;41.67;;
18296;SDS011;18066;52.106;5.534;2022-10-15T05:53:06;89.90;;;41.90;;
18296;SDS011;18066;52.106;5.534;2022-10-15T05:55:33;87.27;;;41.03;;
18296;SDS011;18066;52.106;5.534;2022-10-15T05:58:02;87.77;;;42.23;;
18296;SDS011;18066;52.106;5.534;2022-10-15T06:00:29;92.10;;;42.47;;
18296;SDS011;18066;52.106;5.534;2022-10-15T06:02:56;82.03;;;39.43;;
18296;SDS011;18066;52.106;5.534;2022-10-15T06:05:23;93.30;;;41.13;;
18296;SDS011;18066;52.106;5.534;2022-10-15T06:07:50;92.93;;;40.00;;
18296;SDS011;18066;52.106;5.534;2022-10-15T06:10:17;87.17;;;40.57;;
18296;SDS011;18066;52.106;5.534;2022-10-15T06:12:47;83.83;;;39.87;;
18296;SDS011;18066;52.106;5.534;2022-10-15T06:15:16;82.93;;;39.07;;
18296;SDS011;18066;52.106;5.534;2022-10-15T06:17:43;89.67;;;40.07;;
18296;SDS011;18066;52.106;5.534;2022-10-15T06:20:10;85.97;;;39.03;;
18296;SDS011;18066;52.106;5.534;2022-10-15T06:22:37;87.10;;;39.50;;
18296;SDS011;18066;52.106;5.534;2022-10-15T06:25:05;86.90;;;39.03;;
18296;SDS011;18066;52.106;5.534;2022-10-15T06:27:32;86.70;;;37.07;;
18296;SDS011;18066;52.106;5.534;2022-10-15T06:29:59;79.27;;;35.03;;
18296;SDS011;18066;52.106;5.534;2022-10-15T06:32:27;83.50;;;36.37;;
18296;SDS011;18066;52.106;5.534;2022-10-15T06:34:54;72.90;;;34.07;;
18296;SDS011;18066;52.106;5.534;2022-10-15T06:37:21;76.57;;;35.53;;
18296;SDS011;18066;52.106;5.534;2022-10-15T06:39:48;83.37;;;35.20;;
18296;SDS011;18066;52.106;5.534;2022-10-15T06:42:15;75.70;;;35.03;;
18296;SDS011;18066;52.106;5.534;2022-10-15T06:44:41;79.77;;;33.47;;
18296;SDS011;18066;52.106;5.534;2022-10-15T06:47:08;76.17;;;34.00;;
18296;SDS011;18066;52.106;5.534;2022-10-15T06:49:36;74.78;;;32.28;;
18296;SDS011;18066;52.106;5.534;2022-10-15T06:52:03;71.00;;;32.60;;
18296;SDS011;18066;52.106;5.534;2022-10-15T06:54:30;72.10;;;31.33;;
18296;SDS011;18066;52.106;5.534;2022-10-15T06:56:56;67.50;;;31.80;;
18296;SDS011;18066;52.106;5.534;2022-10-15T06:59:23;76.10;;;31.00;;
18296;SDS011;18066;52.106;5.534;2022-10-15T07:01:50;68.47;;;31.48;;
18296;SDS011;18066;52.106;5.534;2022-10-15T07:04:17;67.43;;;29.83;;
18296;SDS011;18066;52.106;5.534;2022-10-15T07:06:45;64.13;;;28.97;;
18296;SDS011;18066;52.106;5.534;2022-10-15T07:09:11;66.27;;;28.13;;
18296;SDS011;18066;52.106;5.534;2022-10-15T07:11:38;58.63;;;27.17;;
18296;SDS011;18066;52.106;5.534;2022-10-15T07:14:05;66.47;;;28.93;;
18296;SDS011;18066;52.106;5.534;2022-10-15T07:16:32;61.42;;;27.52;;
18296;SDS011;18066;52.106;5.534;2022-10-15T07:18:58;63.03;;;29.08;;
18296;SDS011;18066;52.106;5.534;2022-10-15T07:21:25;57.10;;;27.48;;
18296;SDS011;18066;52.106;5.534;2022-10-15T07:23:53;57.83;;;27.63;;
18296;SDS011;18066;52.106;5.534;2022-10-15T07:26:20;56.88;;;27.02;;
18296;SDS011;18066;52.106;5.534;2022-10-15T07:28:46;58.40;;;27.88;;
18296;SDS011;18066;52.106;5.534;2022-10-15T07:31:13;51.55;;;25.98;;
18296;SDS011;18066;52.106;5.534;2022-10-15T07:33:41;50.00;;;24.40;;
18296;SDS011;18066;52.106;5.534;2022-10-15T07:36:08;46.08;;;24.60;;
18296;SDS011;18066;52.106;5.534;2022-10-15T07:38:37;48.08;;;24.52;;
18296;SDS011;18066;52.106;5.534;2022-10-15T07:41:06;43.75;;;24.52;;
18296;SDS011;18066;52.106;5.534;2022-10-15T07:43:34;41.63;;;23.10;;
18296;SDS011;18066;52.106;5.534;2022-10-15T07:46:02;43.47;;;23.45;;
18296;SDS011;18066;52.106;5.534;2022-10-15T07:48:30;38.63;;;23.10;;
18296;SDS011;18066;52.106;5.534;2022-10-15T07:50:57;39.80;;;23.08;;
18296;SDS011;18066;52.106;5.534;2022-10-15T07:53:25;39.05;;;22.20;;
18296;SDS011;18066;52.106;5.534;2022-10-15T07:55:52;39.22;;;22.92;;
18296;SDS011;18066;52.106;5.534;2022-10-15T07:58:24;37.53;;;21.35;;
18296;SDS011;18066;52.106;5.534;2022-10-15T08:00:51;33.95;;;20.88;;
18296;SDS011;18066;52.106;5.534;2022-10-15T08:03:18;32.17;;;20.15;;
18296;SDS011;18066;52.106;5.534;2022-10-15T08:05:44;32.08;;;18.58;;
18296;SDS011;18066;52.106;5.534;2022-10-15T08:08:11;33.38;;;18.02;;
18296;SDS011;18066;52.106;5.534;2022-10-15T08:10:38;33.22;;;18.73;;
18296;SDS011;18066;52.106;5.534;2022-10-15T08:13:05;28.70;;;16.15;;
18296;SDS011;18066;52.106;5.534;2022-10-15T08:15:33;31.27;;;18.30;;
18296;SDS011;18066;52.106;5.534;2022-10-15T08:18:00;27.40;;;16.70;;
18296;SDS011;18066;52.106;5.534;2022-10-15T08:20:26;28.08;;;17.25;;
18296;SDS011;18066;52.106;5.534;2022-10-15T08:22:53;27.73;;;17.63;;
18296;SDS011;18066;52.106;5.534;2022-10-15T08:25:20;26.42;;;16.48;;
18296;SDS011;18066;52.106;5.534;2022-10-15T08:27:46;25.83;;;15.73;;
18296;SDS011;18066;52.106;5.534;2022-10-15T08:30:13;28.17;;;16.77;;
18296;SDS011;18066;52.106;5.534;2022-10-15T08:32:41;25.85;;;16.55;;
18296;SDS011;18066;52.106;5.534;2022-10-15T08:35:08;25.30;;;16.35;;
18296;SDS011;18066;52.106;5.534;2022-10-15T08:37:35;25.20;;;16.65;;
18296;SDS011;18066;52.106;5.534;2022-10-15T08:40:02;23.85;;;16.40;;
18296;SDS011;18066;52.106;5.534;2022-10-15T08:42:30;26.70;;;16.08;;
18296;SDS011;18066;52.106;5.534;2022-10-15T08:45:01;24.08;;;15.25;;
18296;SDS011;18066;52.106;5.534;2022-10-15T08:47:32;26.70;;;16.13;;
18296;SDS011;18066;52.106;5.534;2022-10-15T08:50:05;23.48;;;14.82;;
18296;SDS011;18066;52.106;5.534;2022-10-15T08:52:43;26.25;;;15.82;;
18296;SDS011;18066;52.106;5.534;2022-10-15T08:55:13;23.77;;;15.60;;
18296;SDS011;18066;52.106;5.534;2022-10-15T08:57:42;22.25;;;14.75;;
18296;SDS011;18066;52.106;5.534;2022-10-15T09:00:13;21.88;;;14.93;;
18296;SDS011;18066;52.106;5.534;2022-10-15T09:02:45;27.08;;;15.80;;
18296;SDS011;18066;52.106;5.534;2022-10-15T09:05:31;25.85;;;16.60;;
18296;SDS011;18066;52.106;5.534;2022-10-15T09:08:04;23.50;;;14.77;;
18296;SDS011;18066;52.106;5.534;2022-10-15T09:10:38;22.63;;;16.08;;
18296;SDS011;18066;52.106;5.534;2022-10-15T09:13:11;23.40;;;15.23;;
18296;SDS011;18066;52.106;5.534;2022-10-15T09:15:42;21.45;;;15.23;;
18296;SDS011;18066;52.106;5.534;2022-10-15T09:18:16;27.40;;;18.23;;
18296;SDS011;18066;52.106;5.534;2022-10-15T09:20:49;25.23;;;17.30;;
18296;SDS011;18066;52.106;5.534;2022-10-15T09:23:18;25.33;;;17.08;;
18296;SDS011;18066;52.106;5.534;2022-10-15T09:25:48;29.60;;;18.10;;
18296;SDS011;18066;52.106;5.534;2022-10-15T09:28:23;26.23;;;17.58;;
18296;SDS011;18066;52.106;5.534;2022-10-15T09:30:54;27.05;;;17.75;;
18296;SDS011;18066;52.106;5.534;2022-10-15T09:33:28;24.38;;;16.55;;
18296;SDS011;18066;52.106;5.534;2022-10-15T09:36:03;25.45;;;17.90;;
18296;SDS011;18066;52.106;5.534;2022-10-15T09:38:39;23.42;;;16.00;;
18296;SDS011;18066;52.106;5.534;2022-10-15T09:41:12;25.23;;;17.50;;
18296;SDS011;18066;52.106;5.534;2022-10-15T09:43:50;23.17;;;14.98;;
18296;SDS011;18066;52.106;5.534;2022-10-15T09:46:20;25.30;;;16.98;;
18296;SDS011;18066;52.106;5.534;2022-10-15T09:48:49;22.33;;;15.07;;
18296;SDS011;18066;52.106;5.534;2022-10-15T09:51:24;22.88;;;14.95;;
18296;SDS011;18066;52.106;5.534;2022-10-15T09:54:00;21.77;;;14.45;;
18296;SDS011;18066;52.106;5.534;2022-10-15T09:56:35;19.33;;;14.00;;
18296;SDS011;18066;52.106;5.534;2022-10-15T09:59:03;18.48;;;13.00;;
18296;SDS011;18066;52.106;5.534;2022-10-15T10:01:31;20.45;;;12.13;;
18296;SDS011;18066;52.106;5.534;2022-10-15T10:04:08;16.38;;;12.05;;
18296;SDS011;18066;52.106;5.534;2022-10-15T10:06:43;18.13;;;12.82;;
18296;SDS011;18066;52.106;5.534;2022-10-15T10:09:14;17.00;;;11.98;;
18296;SDS011;18066;52.106;5.534;2022-10-15T10:11:45;14.73;;;10.88;;
18296;SDS011;18066;52.106;5.534;2022-10-15T10:14:21;16.35;;;10.35;;
18296;SDS011;18066;52.106;5.534;2022-10-15T10:17:03;17.80;;;11.70;;
18296;SDS011;18066;52.106;5.534;2022-10-15T10:19:31;19.67;;;12.85;;
18296;SDS011;18066;52.106;5.534;2022-10-15T10:22:06;18.90;;;12.18;;
18296;SDS011;18066;52.106;5.534;2022-10-15T10:24:39;15.05;;;11.07;;
18296;SDS011;18066;52.106;5.534;2022-10-15T10:27:11;18.27;;;12.07;;
18296;SDS011;18066;52.106;5.534;2022-10-15T10:29:47;16.38;;;11.70;;
18296;SDS011;18066;52.106;5.534;2022-10-15T10:32:20;15.43;;;10.57;;
18296;SDS011;18066;52.106;5.534;2022-10-15T10:34:48;15.02;;;10.10;;
18296;SDS011;18066;52.106;5.534;2022-10-15T10:37:17;13.95;;;9.52;;
18296;SDS011;18066;52.106;5.534;2022-10-15T10:39:44;15.68;;;10.35;;
18296;SDS011;18066;52.106;5.534;2022-10-15T10:42:24;14.73;;;10.40;;
18296;SDS011;18066;52.106;5.534;2022-10-15T10:45:06;13.38;;;9.80;;
18296;SDS011;18066;52.106;5.534;2022-10-15T10:47:41;14.00;;;9.23;;
18296;SDS011;18066;52.106;5.534;2022-10-15T10:50:25;13.18;;;9.52;;
18296;SDS011;18066;52.106;5.534;2022-10-15T10:52:55;13.80;;;9.38;;
18296;SDS011;18066;52.106;5.534;2022-10-15T10:55:24;11.15;;;9.00;;
18296;SDS011;18066;52.106;5.534;2022-10-15T10:58:02;11.65;;;8.30;;
18296;SDS011;18066;52.106;5.534;2022-10-15T11:00:33;12.07;;;8.60;;
18296;SDS011;18066;52.106;5.534;2022-10-15T11:03:04;13.90;;;9.15;;
18296;SDS011;18066;52.106;5.534;2022-10-15T11:05:32;14.00;;;8.98;;
18296;SDS011;18066;52.106;5.534;2022-10-15T11:08:07;12.90;;;9.38;;
18296;SDS011;18066;52.106;5.534;2022-10-15T11:10:46;11.45;;;7.93;;
18296;SDS011;18066;52.106;5.534;2022-10-15T11:13:26;12.13;;;8.40;;
18296;SDS011;18066;52.106;5.534;2022-10-15T11:16:00;11.68;;;8.20;;
18296;SDS011;18066;52.106;5.534;2022-10-15T11:18:36;13.27;;;7.93;;
18296;SDS011;18066;52.106;5.534;2022-10-15T11:21:24;10.23;;;7.45;;
18296;SDS011;18066;52.106;5.534;2022-10-15T11:24:07;10.68;;;6.88;;
18296;SDS011;18066;52.106;5.534;2022-10-15T11:26:42;10.25;;;7.50;;
18296;SDS011;18066;52.106;5.534;2022-10-15T11:29:17;11.35;;;7.13;;
18296;SDS011;18066;52.106;5.534;2022-10-15T11:31:53;8.93;;;6.97;;
18296;SDS011;18066;52.106;5.534;2022-10-15T11:34:30;10.30;;;7.20;;
18296;SDS011;18066;52.106;5.534;2022-10-15T11:37:07;10.40;;;7.15;;
18296;SDS011;18066;52.106;5.534;2022-10-15T11:39:57;8.30;;;5.85;;
18296;SDS011;18066;52.106;5.534;2022-10-15T11:42:40;10.40;;;6.30;;
18296;SDS011;18066;52.106;5.534;2022-10-15T11:45:32;8.25;;;5.80;;
18296;SDS011;18066;52.106;5.534;2022-10-15T11:48:19;9.07;;;6.40;;
18296;SDS011;18066;52.106;5.534;2022-10-15T11:50:55;9.13;;;6.35;;
18296;SDS011;18066;52.106;5.534;2022-10-15T11:53:38;8.02;;;5.97;;
18296;SDS011;18066;52.106;5.534;2022-10-15T11:56:31;10.00;;;6.13;;
18296;SDS011;18066;52.106;5.534;2022-10-15T11:59:02;10.88;;;6.47;;
18296;SDS011;18066;52.106;5.534;2022-10-15T12:01:39;8.70;;;6.35;;
18296;SDS011;18066;52.106;5.534;2022-10-15T12:04:12;8.88;;;6.50;;
18296;SDS011;18066;52.106;5.534;2022-10-15T12:06:44;7.22;;;5.28;;
18296;SDS011;18066;52.106;5.534;2022-10-15T12:09:15;6.72;;;5.50;;
18296;SDS011;18066;52.106;5.534;2022-10-15T12:11:52;9.55;;;5.45;;
18296;SDS011;18066;52.106;5.534;2022-10-15T12:14:29;9.27;;;5.72;;
18296;SDS011;18066;52.106;5.534;2022-10-15T12:17:01;6.38;;;5.28;;
18296;SDS011;18066;52.106;5.534;2022-10-15T12:19:35;6.60;;;5.43;;
18296;SDS011;18066;52.106;5.534;2022-10-15T12:22:07;6.70;;;5.15;;
18296;SDS011;18066;52.106;5.534;2022-10-15T12:24:52;7.47;;;5.45;;
18296;SDS011;18066;52.106;5.534;2022-10-15T12:27:22;7.05;;;5.68;;
18296;SDS011;18066;52.106;5.534;2022-10-15T12:32:45;7.15;;;5.22;;
18296;SDS011;18066;52.106;5.534;2022-10-15T12:35:20;6.55;;;5.43;;
18296;SDS011;18066;52.106;5.534;2022-10-15T12:41:00;8.27;;;6.13;;
18296;SDS011;18066;52.106;5.534;2022-10-15T12:43:31;7.60;;;5.82;;
18296;SDS011;18066;52.106;5.534;2022-10-15T12:46:02;7.40;;;6.18;;
18296;SDS011;18066;52.106;5.534;2022-10-15T12:48:32;8.90;;;7.25;;
18296;SDS011;18066;52.106;5.534;2022-10-15T12:57:00;10.30;;;8.23;;
18296;SDS011;18066;52.106;5.534;2022-10-15T13:02:31;8.38;;;7.45;;
18296;SDS011;18066;52.106;5.534;2022-10-15T13:05:05;8.73;;;7.82;;
18296;SDS011;18066;52.106;5.534;2022-10-15T13:07:35;8.80;;;7.68;;
18296;SDS011;18066;52.106;5.534;2022-10-15T13:10:12;11.85;;;9.10;;
18296;SDS011;18066;52.106;5.534;2022-10-15T13:12:44;9.00;;;7.40;;
18296;SDS011;18066;52.106;5.534;2022-10-15T13:15:16;8.77;;;7.47;;
18296;SDS011;18066;52.106;5.534;2022-10-15T13:17:44;11.43;;;7.40;;
18296;SDS011;18066;52.106;5.534;2022-10-15T13:20:22;9.25;;;7.50;;
18296;SDS011;18066;52.106;5.534;2022-10-15T13:23:06;9.80;;;7.78;;
18296;SDS011;18066;52.106;5.534;2022-10-15T13:25:33;7.35;;;6.35;;
18296;SDS011;18066;52.106;5.534;2022-10-15T13:28:01;7.88;;;7.00;;
18296;SDS011;18066;52.106;5.534;2022-10-15T13:30:29;8.77;;;6.85;;
18296;SDS011;18066;52.106;5.534;2022-10-15T13:32:55;10.73;;;7.13;;
18296;SDS011;18066;52.106;5.534;2022-10-15T13:35:23;7.47;;;6.53;;
18296;SDS011;18066;52.106;5.534;2022-10-15T13:37:53;7.93;;;6.63;;
18296;SDS011;18066;52.106;5.534;2022-10-15T13:40:22;7.20;;;6.47;;
18296;SDS011;18066;52.106;5.534;2022-10-15T13:42:57;8.20;;;7.30;;
18296;SDS011;18066;52.106;5.534;2022-10-15T13:45:24;8.90;;;7.13;;
18296;SDS011;18066;52.106;5.534;2022-10-15T13:47:53;9.82;;;6.95;;
18296;SDS011;18066;52.106;5.534;2022-10-15T13:50:21;6.85;;;6.15;;
18296;SDS011;18066;52.106;5.534;2022-10-15T13:52:50;8.07;;;6.45;;
18296;SDS011;18066;52.106;5.534;2022-10-15T13:55:21;6.97;;;6.03;;
18296;SDS011;18066;52.106;5.534;2022-10-15T13:57:50;8.25;;;6.93;;
18296;SDS011;18066;52.106;5.534;2022-10-15T14:00:22;9.93;;;6.50;;
18296;SDS011;18066;52.106;5.534;2022-10-15T14:03:11;6.78;;;6.05;;
18296;SDS011;18066;52.106;5.534;2022-10-15T14:05:41;7.63;;;5.93;;
18296;SDS011;18066;52.106;5.534;2022-10-15T14:10:58;6.72;;;5.38;;
18296;SDS011;18066;52.106;5.534;2022-10-15T14:13:26;7.72;;;5.70;;
18296;SDS011;18066;52.106;5.534;2022-10-15T14:16:00;5.82;;;5.13;;
18296;SDS011;18066;52.106;5.534;2022-10-15T14:18:40;5.93;;;5.32;;
18296;SDS011;18066;52.106;5.534;2022-10-15T14:21:09;6.10;;;5.22;;
18296;SDS011;18066;52.106;5.534;2022-10-15T14:23:37;6.70;;;5.88;;
18296;SDS011;18066;52.106;5.534;2022-10-15T14:26:05;12.25;;;5.90;;
18296;SDS011;18066;52.106;5.534;2022-10-15T14:28:34;6.22;;;5.25;;
18296;SDS011;18066;52.106;5.534;2022-10-15T14:31:01;6.78;;;5.03;;
18296;SDS011;18066;52.106;5.534;2022-10-15T14:36:22;5.72;;;5.13;;
18296;SDS011;18066;52.106;5.534;2022-10-15T14:38:51;6.32;;;4.80;;
18296;SDS011;18066;52.106;5.534;2022-10-15T14:41:27;5.97;;;4.55;;
18296;SDS011;18066;52.106;5.534;2022-10-15T14:43:58;4.20;;;3.80;;
18296;SDS011;18066;52.106;5.534;2022-10-15T14:46:27;3.80;;;3.40;;
18296;SDS011;18066;52.106;5.534;2022-10-15T14:49:02;5.35;;;2.70;;
18296;SDS011;18066;52.106;5.534;2022-10-15T14:51:40;3.92;;;2.95;;
18296;SDS011;18066;52.106;5.534;2022-10-15T14:54:08;3.40;;;2.85;;
18296;SDS011;18066;52.106;5.534;2022-10-15T14:56:43;3.03;;;2.53;;
18296;SDS011;18066;52.106;5.534;2022-10-15T14:59:12;3.80;;;2.97;;
18296;SDS011;18066;52.106;5.534;2022-10-15T15:01:48;3.40;;;2.63;;
18296;SDS011;18066;52.106;5.534;2022-10-15T15:04:32;3.65;;;2.53;;
18296;SDS011;18066;52.106;5.534;2022-10-15T15:07:05;3.95;;;2.65;;
18296;SDS011;18066;52.106;5.534;2022-10-15T15:09:38;2.42;;;2.22;;
18296;SDS011;18066;52.106;5.534;2022-10-15T15:12:07;3.88;;;2.38;;